Alsea, Oregon
Current Conditions -  °F | °C
As of 11:15 AM on Tuesday 21 Oct 2014 (Local Time) from KCVO Reporting Station
Overcast Overcast  
Wind Chill: 59°   Ceiling: 10000
Heat Index: 59°   Visibility: 10mi
Dew Point: 52°   Wind: 18mph
Humidity: 77%   Direction: 160°SSE
Pressure: 30.04"   Gusts: NA
Location:  44.38°N, 123.6°W
Report Text: KCVO 211815Z AUTO 16016KT 10SM FEW042 SCT065 OVC100 15/11 A3004 RMK AO1
Loading
Personal Weather Stations






























Interactive Weather Map
Tropical Storm Tracking
New forecast layout! Learn more

10-Day Weather Forecast

Advertisements
Track Severe Weather on mobile